Time;durP1;ratioP1;P1;durP2;ratioP2;P2;SDS_P1;SDS_P2;PMS_P1;PMS_P2;Temp;Humidity;BMP_temperature;BMP_pressure;BME280_temperature;BME280_humidity;BME280_pressure;Samples;Min_cycle;Max_cycle;Signal;HPM_P1;HPM_P2
2020/12/20 00:01:43;;;;;;;39.67;19.73;;;;;;;5.53;70.29;101856.80;1764289;80;21662;-57
2020/12/20 00:04:11;;;;;;;30.37;17.90;;;;;;;5.62;70.08;101857.39;1758437;80;21603;-57
2020/12/20 00:06:39;;;;;;;45.80;20.45;;;;;;;5.68;69.96;101859.77;1761154;80;21226;-57
2020/12/20 00:09:19;;;;;;;40.63;20.48;;;;;;;5.68;69.90;101861.06;1770997;80;21120;-57
2020/12/20 00:11:49;;;;;;;48.02;20.90;;;;;;;5.65;70.02;101863.34;1761948;80;21596;-57
2020/12/20 00:14:29;;;;;;;37.05;21.05;;;;;;;5.61;70.10;101866.12;1757232;80;21215;-57
2020/12/20 00:17:03;;;;;;;46.37;20.55;;;;;;;5.61;70.19;101864.81;1761866;80;21147;-57
2020/12/20 00:19:32;;;;;;;40.35;20.88;;;;;;;5.56;70.20;101866.27;1757593;80;21373;-57
2020/12/20 00:22:09;;;;;;;35.78;19.45;;;;;;;5.51;70.24;101868.20;1759485;80;21172;-57
2020/12/20 00:24:37;;;;;;;31.48;18.45;;;;;;;5.48;70.36;101868.30;1763327;80;21449;-57
2020/12/20 00:27:05;;;;;;;40.75;18.92;;;;;;;5.56;70.36;101864.97;1758269;80;21848;-57
2020/12/20 00:29:34;;;;;;;37.53;18.25;;;;;;;5.69;70.02;101866.70;1727826;82;21603;-57
2020/12/20 00:32:03;;;;;;;41.80;20.35;;;;;;;5.77;69.81;101860.75;1753241;80;23443;-57
2020/12/20 00:34:30;;;;;;;41.15;19.65;;;;;;;5.80;69.66;101859.77;1766761;80;21568;-57
2020/12/20 00:36:58;;;;;;;31.10;19.50;;;;;;;5.77;69.68;101868.13;1771773;79;21603;-58
2020/12/20 00:39:26;;;;;;;34.70;18.73;;;;;;;5.73;69.76;101864.36;1770879;80;21845;-57
2020/12/20 00:41:58;;;;;;;37.75;20.43;;;;;;;5.71;69.87;101868.33;1764353;79;21151;-57
2020/12/20 00:44:37;;;;;;;38.95;20.15;;;;;;;5.71;69.99;101867.03;1757677;80;21253;-57
2020/12/20 00:47:04;;;;;;;39.73;19.48;;;;;;;5.72;69.91;101862.21;1769952;80;21147;-57
2020/12/20 00:49:33;;;;;;;29.35;17.00;;;;;;;5.66;69.91;101861.12;1749333;80;21745;-57
2020/12/20 00:52:04;;;;;;;36.40;17.25;;;;;;;5.66;69.92;101861.12;1761301;80;21152;-57
2020/12/20 00:54:33;;;;;;;37.60;16.23;;;;;;;5.74;69.80;101865.61;1772458;80;21176;-57
2020/12/20 00:57:01;;;;;;;32.17;17.40;;;;;;;5.82;69.58;101861.90;1760146;80;22872;-58
2020/12/20 00:59:30;;;;;;;28.57;17.42;;;;;;;5.83;69.52;101859.20;1765616;80;21136;-57
2020/12/20 01:01:58;;;;;;;43.85;18.98;;;;;;;5.81;69.57;101858.41;1770175;79;21164;-57
2020/12/20 01:04:27;;;;;;;34.53;18.77;;;;;;;5.80;69.55;101856.73;1767322;80;22523;-57
2020/12/20 01:06:56;;;;;;;38.92;16.85;;;;;;;5.75;69.55;101854.73;1761136;80;21509;-58
2020/12/20 01:09:25;;;;;;;43.58;19.48;;;;;;;5.71;69.68;101862.27;1762394;80;21357;-57
2020/12/20 01:11:56;;;;;;;43.68;18.15;;;;;;;5.64;69.66;101857.72;1767100;80;21175;-57
2020/12/20 01:14:26;;;;;;;38.73;16.77;;;;;;;5.57;69.72;101859.69;1752465;79;21189;-57
2020/12/20 01:17:04;;;;;;;36.35;18.90;;;;;;;5.54;69.82;101859.80;1801389;79;22741;-58
2020/12/20 01:19:34;;;;;;;30.37;16.00;;;;;;;5.56;69.75;101867.15;1778983;80;21099;-56
2020/12/20 01:22:01;;;;;;;30.90;16.75;;;;;;;5.58;69.78;101861.84;1724335;81;21418;-58
2020/12/20 01:24:29;;;;;;;37.53;18.37;;;;;;;5.61;69.84;101868.27;1743316;81;21150;-57
2020/12/20 01:26:58;;;;;;;37.03;19.48;;;;;;;5.59;69.94;101869.62;1716699;81;21205;-57
2020/12/20 01:29:25;;;;;;;43.23;19.30;;;;;;;5.59;69.96;101862.25;1717334;83;21535;-58
2020/12/20 01:31:53;;;;;;;35.80;17.05;;;;;;;5.57;69.99;101864.07;1721141;81;21198;-57
2020/12/20 01:34:22;;;;;;;38.65;18.10;;;;;;;5.54;70.01;101862.41;1726961;81;22113;-57
2020/12/20 01:36:50;;;;;;;33.92;17.42;;;;;;;5.50;70.17;101867.81;1732438;81;21216;-57
2020/12/20 01:39:18;;;;;;;46.40;17.60;;;;;;;5.50;70.17;101867.81;1734636;81;21184;-57
2020/12/20 01:41:47;;;;;;;34.18;16.95;;;;;;;5.50;70.15;101870.42;1722282;81;21611;-57
2020/12/20 01:44:16;;;;;;;28.55;16.90;;;;;;;5.53;70.01;101869.86;1716242;82;21212;-57
2020/12/20 01:46:46;;;;;;;37.30;15.80;;;;;;;5.64;69.85;101870.77;1749753;81;21258;-57
2020/12/20 01:49:16;;;;;;;31.48;15.85;;;;;;;5.70;69.61;101872.30;1695706;81;21175;-57
2020/12/20 01:51:43;;;;;;;30.77;16.70;;;;;;;5.75;69.83;101869.95;1720373;81;21601;-57
2020/12/20 01:54:13;;;;;;;29.95;15.95;;;;;;;5.75;69.83;101869.95;1727924;81;21181;-57
2020/12/20 01:56:42;;;;;;;34.95;15.83;;;;;;;5.72;69.66;101867.44;1737273;81;21182;-57
2020/12/20 01:59:11;;;;;;;31.02;15.55;;;;;;;5.73;69.67;101866.55;1724275;81;21197;-57
2020/12/20 02:01:41;;;;;;;33.40;16.05;;;;;;;5.70;69.61;101865.34;1720422;81;21234;-56
2020/12/20 02:04:30;;;;;;;34.08;15.23;;;;;;;5.68;69.67;101862.38;1805111;78;22686;-59
2020/12/20 02:06:58;;;;;;;32.35;16.10;;;;;;;5.59;69.81;101866.17;1719763;81;21132;-58
2020/12/20 02:09:27;;;;;;;26.37;14.10;;;;;;;5.61;69.77;101868.73;1726316;80;21380;-58
2020/12/20 02:12:04;;;;;;;23.40;12.07;;;;;;;5.66;69.62;101871.56;1720494;83;21156;-58
2020/12/20 02:14:34;;;;;;;26.20;14.10;;;;;;;5.70;69.58;101875.79;1728084;81;21200;-57
2020/12/20 02:17:03;;;;;;;25.75;12.75;;;;;;;5.73;69.56;101876.12;1721244;81;21188;-57
2020/12/20 02:19:34;;;;;;;28.25;14.68;;;;;;;5.72;69.59;101874.43;1736243;81;21507;-57
2020/12/20 02:22:24;;;;;;;28.12;15.10;;;;;;;5.67;69.61;101873.28;1793575;77;22709;-59
2020/12/20 02:24:52;;;;;;;26.15;13.62;;;;;;;5.55;69.78;101869.34;1780212;80;21132;-57
2020/12/20 02:38:17;;;;;;;24.92;12.47;;;;;;;5.03;71.01;101869.36;1819927;76;22697;-56
2020/12/20 02:40:46;;;;;;;27.87;11.88;;;;;;;4.96;71.09;101867.87;1786957;79;21163;-57
2020/12/20 02:43:14;;;;;;;19.95;11.48;;;;;;;5.07;70.92;101870.11;1804107;79;22249;-57
2020/12/20 02:45:41;;;;;;;21.77;10.78;;;;;;;5.11;70.85;101872.16;1790313;79;21127;-57
2020/12/20 02:48:10;;;;;;;23.02;11.90;;;;;;;5.15;70.81;101869.87;1806453;79;21124;-57
2020/12/20 02:50:39;;;;;;;23.87;12.25;;;;;;;5.15;70.84;101877.70;1791081;78;21183;-57
2020/12/20 02:53:08;;;;;;;26.80;11.95;;;;;;;5.15;70.84;101880.30;1798892;79;21032;-57
2020/12/20 02:55:37;;;;;;;23.65;11.75;;;;;;;5.12;70.86;101880.41;1788418;79;21355;-58
2020/12/20 02:58:14;;;;;;;19.90;11.83;;;;;;;5.13;70.89;101882.13;1825558;76;22840;-58
2020/12/20 03:00:44;;;;;;;18.02;9.53;;;;;;;5.05;70.87;101887.58;1772186;79;21166;-58
2020/12/20 03:03:14;;;;;;;20.20;10.00;;;;;;;5.07;70.85;101881.01;1788645;79;21305;-58
2020/12/20 03:05:44;;;;;;;21.90;11.53;;;;;;;5.19;70.59;101885.81;1804123;79;21132;-58
2020/12/20 03:08:12;;;;;;;24.20;10.13;;;;;;;5.29;70.43;101879.83;1800713;79;21120;-58
2020/12/20 03:10:40;;;;;;;16.97;10.95;;;;;;;5.34;70.36;101884.44;1800084;79;21191;-58
2020/12/20 03:13:08;;;;;;;25.12;10.90;;;;;;;5.36;70.38;101882.62;1805935;78;21112;-58
2020/12/20 03:15:41;;;;;;;18.55;10.80;;;;;;;5.38;70.35;101890.82;1795529;79;22057;-58
2020/12/20 03:18:08;;;;;;;21.68;10.88;;;;;;;5.38;70.30;101882.98;1804672;79;22023;-58
2020/12/20 03:20:38;;;;;;;21.73;11.40;;;;;;;5.37;70.18;101883.04;1788266;79;21741;-58
2020/12/20 03:23:06;;;;;;;23.20;12.58;;;;;;;5.30;70.22;101887.61;1807267;79;21551;-58
2020/12/20 03:25:43;;;;;;;;;;;;;;;5.31;70.31;101889.33;1861256;76;22055;-58
2020/12/20 03:28:25;;;;;;;20.00;10.28;;;;;;;5.30;70.25;101891.53;1823822;77;20397;-58
2020/12/20 03:41:41;;;;;;;19.35;10.15;;;;;;;5.59;69.85;101893.12;1940811;72;22653;-57
2020/12/20 03:44:11;;;;;;;21.02;10.93;;;;;;;5.58;69.92;101902.31;1888468;74;21143;-57
2020/12/20 03:46:46;;;;;;;23.62;11.78;;;;;;;5.65;69.86;101903.83;1836940;75;22798;-58
2020/12/20 03:49:14;;;;;;;19.02;10.55;;;;;;;5.63;69.70;101910.88;1794247;79;21032;-58
2020/12/20 03:51:42;;;;;;;24.00;11.15;;;;;;;5.62;69.57;101917.45;1800539;79;21248;-58
2020/12/20 03:54:11;;;;;;;24.55;13.10;;;;;;;5.55;69.46;101925.48;1794623;79;21212;-59
2020/12/20 03:56:40;;;;;;;22.55;11.63;;;;;;;5.47;69.59;101918.83;1792930;79;21710;-58
2020/12/20 04:10:18;;;;;;;19.55;11.88;;;;;;;5.02;70.60;101931.56;1877917;75;22751;-58
2020/12/20 04:12:47;;;;;;;30.05;12.43;;;;;;;4.90;70.79;101937.18;1812567;77;21198;-58
2020/12/20 04:15:16;;;;;;;19.17;10.68;;;;;;;4.96;70.81;101936.13;1839463;77;23588;-58
2020/12/20 04:17:44;;;;;;;21.30;10.32;;;;;;;5.11;70.60;101938.70;1829436;77;21014;-59
2020/12/20 04:20:12;;;;;;;16.93;9.85;;;;;;;5.22;70.30;101945.73;1827972;77;21057;-58
2020/12/20 04:22:55;;;;;;;19.37;11.30;;;;;;;5.33;70.00;101950.16;1834006;76;23390;-58
2020/12/20 04:25:31;;;;;;;25.27;11.25;;;;;;;5.34;69.83;101951.84;1725780;78;21243;-59
2020/12/20 04:28:17;;;;;;;26.53;13.63;;;;;;;5.39;69.87;101959.08;1746132;79;34435;-60
2020/12/20 04:30:46;;;;;;;22.77;12.37;;;;;;;5.74;69.28;101957.03;1736441;80;21733;-59
2020/12/20 04:33:16;;;;;;;18.92;10.95;;;;;;;5.74;69.28;101957.03;1734888;82;21220;-59
2020/12/20 04:35:57;;;;;;;24.02;12.03;;;;;;;5.71;68.93;101957.59;1680155;83;21249;-59
2020/12/20 04:38:25;;;;;;;19.02;11.85;;;;;;;5.63;68.96;101952.66;1683656;83;21640;-59
2020/12/20 04:40:52;;;;;;;22.40;13.13;;;;;;;5.56;69.05;101958.97;1683774;83;21455;-59
2020/12/20 04:43:22;;;;;;;19.87;10.65;;;;;;;5.50;69.23;101965.72;1657469;83;21245;-58
2020/12/20 04:45:52;;;;;;;26.52;12.23;;;;;;;5.52;69.26;101971.73;1684376;83;21827;-58
2020/12/20 04:48:22;;;;;;;30.35;14.07;;;;;;;5.58;69.07;101976.73;1683536;83;21200;-58
2020/12/20 04:50:51;;;;;;;28.27;13.32;;;;;;;5.59;69.10;101978.45;1683608;83;21203;-59
2020/12/20 04:53:20;;;;;;;30.08;14.95;;;;;;;5.58;69.17;101980.22;1657590;83;21257;-60
2020/12/20 04:56:02;;;;;;;32.63;15.18;;;;;;;5.56;69.36;101979.86;1674162;83;21239;-59
2020/12/20 04:58:33;;;;;;;45.70;18.05;;;;;;;5.52;69.45;101980.41;1677812;83;21356;-59
2020/12/20 05:01:01;;;;;;;33.63;16.90;;;;;;;5.48;69.59;101978.83;1713872;82;21217;-58
2020/12/20 05:03:29;;;;;;;35.55;16.93;;;;;;;5.41;69.82;101978.60;1679808;83;21134;-58
2020/12/20 05:05:57;;;;;;;37.53;17.48;;;;;;;5.34;70.01;101981.02;1672939;83;21231;-57
2020/12/20 05:08:25;;;;;;;38.00;15.90;;;;;;;5.29;70.17;101977.71;1683103;83;21138;-58
2020/12/20 05:10:54;;;;;;;36.80;16.32;;;;;;;5.30;70.25;101978.97;1680190;83;22986;-58
2020/12/20 05:13:39;;;;;;;40.05;18.40;;;;;;;5.42;70.12;101984.70;1678587;83;21234;-58
2020/12/20 05:16:33;;;;;;;33.33;15.72;;;;;;;5.49;69.96;101977.91;1682119;83;21522;-59
2020/12/20 05:19:15;;;;;;;35.95;15.13;;;;;;;5.51;69.98;101984.38;1661389;84;21211;-59
2020/12/20 05:22:04;;;;;;;39.83;16.35;;;;;;;5.48;70.34;101982.74;1844964;75;22693;-58
2020/12/20 05:24:37;;;;;;;36.98;18.30;;;;;;;5.44;70.39;101978.51;1792789;78;21179;-58
2020/12/20 05:27:04;;;;;;;31.87;16.45;;;;;;;5.39;70.48;101983.03;1788768;78;22941;-58
2020/12/20 05:29:32;;;;;;;38.33;15.93;;;;;;;5.32;70.95;101983.67;1795889;77;21207;-58
2020/12/20 05:32:01;;;;;;;31.07;16.93;;;;;;;5.32;70.95;101983.67;1798916;78;21230;-59
2020/12/20 05:35:05;;;;;;;30.15;15.83;;;;;;;5.33;70.69;101987.13;1822534;76;23194;-59
2020/12/20 05:37:34;;;;;;;26.50;13.62;;;;;;;5.38;70.40;101987.41;1797469;79;21021;-59
2020/12/20 05:40:06;;;;;;;31.00;15.48;;;;;;;5.38;70.40;101987.41;1810848;79;21192;-59
2020/12/20 05:42:55;;;;;;;34.58;14.90;;;;;;;5.47;70.54;101988.02;1878227;75;22670;-59
2020/12/20 05:45:31;;;;;;;37.53;14.83;;;;;;;5.48;70.53;101992.31;1847790;75;21052;-59
2020/12/20 05:48:19;;;;;;;36.38;15.13;;;;;;;5.52;70.63;101999.16;1864530;76;22744;-57
2020/12/20 05:50:54;;;;;;;24.37;12.47;;;;;;;5.39;70.51;102007.83;1834430;76;21154;-57
2020/12/20 05:53:27;;;;;;;26.02;13.78;;;;;;;5.39;70.51;102007.83;1836671;77;21371;-58
2020/12/20 05:55:59;;;;;;;33.98;14.68;;;;;;;5.31;70.69;102012.02;1833715;77;21207;-57
2020/12/20 05:58:29;;;;;;;28.20;13.95;;;;;;;5.23;70.89;102007.48;1836223;77;21627;-57
2020/12/20 06:00:57;;;;;;;26.00;12.20;;;;;;;5.16;71.09;102009.86;1840520;75;21567;-58
2020/12/20 06:03:25;;;;;;;25.55;11.48;;;;;;;5.19;71.17;102017.17;1837845;76;21226;-57
2020/12/20 06:05:53;;;;;;;22.02;10.58;;;;;;;5.29;70.99;102020.77;1839243;77;21193;-57
2020/12/20 06:08:23;;;;;;;26.27;12.07;;;;;;;5.35;70.92;102016.67;1843376;77;21179;-57
2020/12/20 06:10:52;;;;;;;27.07;12.00;;;;;;;5.40;70.88;102018.22;1842869;77;21108;-56
2020/12/20 06:13:23;;;;;;;25.50;12.05;;;;;;;5.42;70.86;102022.09;1838705;77;21176;-56
2020/12/20 06:15:53;;;;;;;25.37;13.08;;;;;;;5.40;70.91;102026.52;1834893;75;21131;-58
2020/12/20 06:18:28;;;;;;;21.80;11.63;;;;;;;5.39;70.91;102027.41;1838495;77;22149;-57
2020/12/20 06:21:01;;;;;;;22.07;10.93;;;;;;;5.38;70.94;102027.88;1847182;77;21202;-57
2020/12/20 06:23:34;;;;;;;22.22;11.03;;;;;;;5.38;70.96;102029.64;1846679;75;21172;-57
2020/12/20 06:26:03;;;;;;;20.37;10.35;;;;;;;5.35;70.97;102031.88;1841805;75;21207;-56
2020/12/20 06:28:33;;;;;;;20.88;9.43;;;;;;;5.37;70.86;102035.28;1840599;75;21187;-56
2020/12/20 06:31:01;;;;;;;19.17;10.75;;;;;;;5.45;70.76;102041.58;1841042;75;21219;-57
2020/12/20 06:33:45;;;;;;;22.40;12.15;;;;;;;5.52;70.60;102046.16;1844288;77;21175;-56
2020/12/20 06:36:14;;;;;;;22.87;11.53;;;;;;;5.55;70.53;102043.45;1837708;75;21214;-55
2020/12/20 06:38:54;;;;;;;21.10;10.85;;;;;;;5.55;70.65;102046.06;1845421;75;21614;-55
2020/12/20 06:41:35;;;;;;;21.65;10.82;;;;;;;5.53;70.60;102048.72;1842680;75;21187;-56
2020/12/20 06:44:13;;;;;;;16.80;10.13;;;;;;;5.48;70.58;102049.32;1844866;77;22939;-56
2020/12/20 06:46:45;;;;;;;22.60;10.00;;;;;;;5.44;70.65;102050.77;1839428;77;21241;-56
2020/12/20 06:49:40;;;;;;;20.27;11.20;;;;;;;5.38;70.71;102051.83;1840620;77;21221;-56
2020/12/20 06:52:28;;;;;;;19.73;10.28;;;;;;;5.32;70.90;102053.31;1842411;77;21171;-55
2020/12/20 06:55:16;;;;;;;23.75;10.13;;;;;;;5.39;70.81;102057.43;1847771;75;21436;-56
2020/12/20 06:58:07;;;;;;;31.60;15.98;;;;;;;5.48;70.64;102047.14;1806791;77;23526;-57
2020/12/20 07:00:51;;;;;;;30.00;15.38;;;;;;;5.54;70.68;102050.87;1825218;77;21144;-57
2020/12/20 07:03:40;;;;;;;30.68;15.65;;;;;;;5.56;70.63;102047.32;1833809;77;21180;-57
2020/12/20 07:06:12;;;;;;;28.15;14.00;;;;;;;5.57;70.78;102049.47;1841242;76;21158;-57
2020/12/20 07:08:41;;;;;;;29.18;16.20;;;;;;;5.55;70.75;102049.98;1846276;77;21216;-57
2020/12/20 07:11:21;;;;;;;27.60;15.80;;;;;;;5.53;70.90;102049.15;1851671;75;23607;-57
2020/12/20 07:13:55;;;;;;;31.25;14.93;;;;;;;5.53;70.92;102052.64;1844248;75;21164;-56
2020/12/20 07:16:25;;;;;;;28.95;14.63;;;;;;;5.52;70.90;102052.69;1777920;78;21181;-57
2020/12/20 07:19:00;;;;;;;22.55;11.63;;;;;;;5.50;70.92;102051.42;1800884;78;21183;-56
2020/12/20 07:21:35;;;;;;;29.15;13.53;;;;;;;5.54;70.75;102050.87;1774498;78;21246;-57
2020/12/20 07:24:24;;;;;;;26.85;11.63;;;;;;;5.63;70.50;102054.50;1798367;78;21584;-56
2020/12/20 07:26:56;;;;;;;24.37;12.35;;;;;;;5.74;70.74;102063.28;1800216;77;21191;-56
2020/12/20 07:29:24;;;;;;;27.82;12.30;;;;;;;5.74;70.74;102063.28;1810263;78;21100;-57
2020/12/20 07:31:55;;;;;;;20.48;10.08;;;;;;;5.74;70.68;102065.43;1776526;78;21678;-56
2020/12/20 07:34:24;;;;;;;24.80;12.25;;;;;;;5.75;70.47;102062.39;1791412;78;21191;-56
2020/12/20 07:36:54;;;;;;;20.43;10.78;;;;;;;5.73;70.39;102067.66;1789914;77;22278;-56
2020/12/20 07:39:22;;;;;;;21.30;12.30;;;;;;;5.71;70.43;102059.45;1792667;78;21236;-57
2020/12/20 07:41:49;;;;;;;30.82;11.53;;;;;;;5.65;70.42;102056.61;1795180;78;21156;-57
2020/12/20 07:44:17;;;;;;;18.37;10.63;;;;;;;5.65;70.49;102059.64;1794699;78;21849;-58
2020/12/20 07:46:44;;;;;;;20.62;10.82;;;;;;;5.69;70.53;102057.36;1795777;78;21189;-58
2020/12/20 07:49:13;;;;;;;16.87;7.92;;;;;;;5.82;70.29;102064.34;1812360;78;22156;-57
2020/12/20 07:51:41;;;;;;;13.20;8.23;;;;;;;5.93;69.97;102069.62;1803185;78;21193;-57
2020/12/20 07:54:13;;;;;;;20.15;8.48;;;;;;;5.93;69.97;102069.62;1800093;78;21196;-57
2020/12/20 07:56:45;;;;;;;17.07;8.23;;;;;;;5.93;69.70;102076.15;1795999;77;21253;-57
2020/12/20 07:59:15;;;;;;;18.95;8.75;;;;;;;5.92;69.55;102068.36;1777865;79;21546;-57
2020/12/20 08:01:48;;;;;;;23.22;8.68;;;;;;;5.71;69.29;102072.05;1804126;78;21224;-57
2020/12/20 08:04:18;;;;;;;20.97;9.75;;;;;;;5.71;69.29;102072.05;1794399;78;21215;-56
2020/12/20 08:06:51;;;;;;;15.35;8.55;;;;;;;5.59;69.58;102085.52;1780359;78;21615;-56
2020/12/20 08:09:24;;;;;;;20.15;8.13;;;;;;;5.46;69.50;102076.36;1808829;78;21120;-57
2020/12/20 08:11:53;;;;;;;20.62;9.70;;;;;;;5.34;69.41;102084.13;1783079;78;21675;-57
2020/12/20 08:14:22;;;;;;;15.70;8.10;;;;;;;5.31;69.48;102087.70;1804894;78;22798;-57
2020/12/20 08:16:51;;;;;;;16.23;9.03;;;;;;;5.34;69.64;102087.59;1776907;78;21237;-56
2020/12/20 08:19:28;;;;;;;22.17;9.63;;;;;;;5.41;69.72;102093.47;1804524;78;21131;-56
2020/12/20 08:22:14;;;;;;;22.07;10.48;;;;;;;5.44;69.75;102097.30;1780224;80;21175;-57
2020/12/20 08:24:47;;;;;;;23.12;11.70;;;;;;;5.45;69.83;102087.73;1802707;78;21188;-57
2020/12/20 08:27:26;;;;;;;16.00;8.70;;;;;;;5.47;69.83;102089.84;1768631;80;22312;-57
2020/12/20 08:30:05;;;;;;;17.98;9.33;;;;;;;5.42;69.73;102091.73;1789512;78;21508;-57
2020/12/20 08:32:42;;;;;;;21.02;10.30;;;;;;;5.30;69.83;102089.05;1805926;78;21191;-56
2020/12/20 08:35:26;;;;;;;21.50;10.00;;;;;;;5.23;70.04;102087.08;1801254;78;21200;-56
2020/12/20 08:37:55;;;;;;;16.60;9.13;;;;;;;5.20;70.17;102085.86;1797313;77;21215;-55
2020/12/20 08:40:22;;;;;;;19.70;10.72;;;;;;;5.26;70.07;102081.77;1772005;78;22274;-56
2020/12/20 08:42:52;;;;;;;18.40;10.80;;;;;;;5.39;69.82;102080.46;1804981;78;22372;-56
2020/12/20 08:45:23;;;;;;;17.55;9.63;;;;;;;5.48;69.75;102083.69;1818959;78;21173;-57
2020/12/20 08:47:50;;;;;;;20.10;11.15;;;;;;;5.59;69.86;102081.60;1795031;78;21489;-60
2020/12/20 08:50:25;;;;;;;23.55;11.80;;;;;;;5.59;69.86;102081.60;1795277;77;22385;-56
2020/12/20 08:53:06;;;;;;;23.93;11.67;;;;;;;5.62;69.63;102076.75;1799417;78;22067;-57
2020/12/20 08:55:34;;;;;;;28.70;10.53;;;;;;;5.64;69.57;102074.47;1800733;77;22144;-56
2020/12/20 08:58:05;;;;;;;18.87;10.30;;;;;;;5.62;69.37;102072.83;1796798;77;21651;-56
2020/12/20 09:00:35;;;;;;;26.48;12.10;;;;;;;5.57;69.40;102084.27;1805312;77;21209;-56
2020/12/20 09:03:04;;;;;;;34.58;10.88;;;;;;;5.50;69.39;102088.44;1804325;78;22356;-56
2020/12/20 09:05:35;;;;;;;19.92;10.82;;;;;;;5.43;69.56;102087.77;1799254;78;21438;-57
2020/12/20 09:08:05;;;;;;;17.73;9.43;;;;;;;5.46;69.51;102086.81;1777623;79;21213;-56
2020/12/20 09:10:33;;;;;;;19.20;9.43;;;;;;;5.55;69.36;102082.16;1806798;77;21159;-56
2020/12/20 09:13:06;;;;;;;16.27;9.38;;;;;;;5.65;69.13;102090.98;1797756;77;21133;-56
2020/12/20 09:15:36;;;;;;;21.73;9.85;;;;;;;5.71;68.74;102086.42;1800671;77;21213;-58
2020/12/20 09:18:15;;;;;;;22.70;12.37;;;;;;;5.69;68.77;102085.62;1799196;77;21275;-57
2020/12/20 09:20:44;;;;;;;18.62;8.95;;;;;;;5.66;71.04;102087.02;1814811;78;21232;-58
2020/12/20 09:23:18;;;;;;;17.98;9.10;;;;;;;5.63;69.71;102081.05;1802755;77;21173;-58
2020/12/20 09:25:46;;;;;;;16.67;9.08;;;;;;;5.55;69.32;102094.37;1793018;77;21482;-57
2020/12/20 09:28:21;;;;;;;17.90;9.28;;;;;;;5.48;69.30;102085.00;1795658;77;21192;-57
2020/12/20 09:30:51;;;;;;;16.37;7.92;;;;;;;5.43;69.21;102088.20;1803334;78;21266;-57
2020/12/20 09:33:33;;;;;;;14.40;7.78;;;;;;;5.46;69.29;102085.50;1795278;78;21506;-57
2020/12/20 09:36:08;;;;;;;17.00;9.63;;;;;;;5.54;68.73;102084.35;1795783;77;21179;-57
2020/12/20 09:38:44;;;;;;;19.15;10.00;;;;;;;5.66;68.65;102088.33;1791206;79;21448;-56
2020/12/20 09:41:13;;;;;;;;;;;;;;;5.66;68.65;102088.33;1792265;79;22464;-56
2020/12/20 09:43:41;;;;;;;19.17;8.68;;;;;;;5.68;69.01;102082.62;1790272;79;21350;-56
2020/12/20 09:46:10;;;;;;;17.65;7.97;;;;;;;5.59;68.96;102089.44;1786531;79;21211;-57
2020/12/20 09:48:37;;;;;;;18.42;7.97;;;;;;;5.54;68.71;102090.03;1787807;79;21220;-56
2020/12/20 09:51:05;;;;;;;16.12;7.10;;;;;;;5.45;68.58;102095.56;1788195;77;21536;-57
2020/12/20 09:53:32;;;;;;;13.48;6.85;;;;;;;5.37;68.55;102088.80;1792328;79;21183;-61
2020/12/20 09:56:01;;;;;;;15.70;8.00;;;;;;;5.29;68.74;102086.03;1784341;79;22980;-56
2020/12/20 09:58:29;;;;;;;14.05;7.78;;;;;;;5.28;68.84;102086.91;1761652;79;21214;-57
2020/12/20 10:00:58;;;;;;;14.30;7.22;;;;;;;5.37;68.69;102091.88;1788440;78;21181;-58
2020/12/20 10:03:27;;;;;;;14.38;8.05;;;;;;;5.39;68.62;102088.30;1788754;79;21234;-56
2020/12/20 10:05:56;;;;;;;14.85;7.83;;;;;;;5.43;68.61;102092.13;1792049;79;21653;-57
2020/12/20 10:08:25;;;;;;;15.30;8.20;;;;;;;5.38;68.74;102089.67;1795149;79;21202;-57
2020/12/20 10:10:55;;;;;;;12.93;8.13;;;;;;;5.36;68.74;102092.33;1782579;79;21251;-57
2020/12/20 10:13:22;;;;;;;18.92;9.20;;;;;;;5.33;68.83;102087.20;1789779;79;21206;-56
2020/12/20 10:15:50;;;;;;;18.62;8.93;;;;;;;5.32;68.87;102089.86;1777966;79;21155;-57
2020/12/20 10:18:17;;;;;;;20.80;10.38;;;;;;;5.28;68.93;102083.88;1778759;80;21176;-56
2020/12/20 10:20:45;;;;;;;18.12;9.58;;;;;;;5.25;69.04;102087.88;1778574;78;22756;-57
2020/12/20 10:23:13;;;;;;;15.32;8.38;;;;;;;5.29;69.02;102083.42;1808312;78;21230;-57
2020/12/20 10:25:41;;;;;;;18.55;9.05;;;;;;;5.39;68.71;102083.08;1804812;78;21182;-57
2020/12/20 10:28:09;;;;;;;15.53;9.85;;;;;;;5.48;68.64;102081.08;1803419;77;21507;-56
2020/12/20 10:30:37;;;;;;;15.30;8.18;;;;;;;5.54;68.54;102083.51;1808830;77;21636;-56
2020/12/20 10:33:05;;;;;;;18.50;8.93;;;;;;;5.55;68.53;102080.00;1781197;80;21221;-56
2020/12/20 10:35:33;;;;;;;22.52;10.38;;;;;;;5.53;68.61;102080.48;1808436;78;21682;-57
2020/12/20 10:38:00;;;;;;;16.93;9.33;;;;;;;5.47;68.65;102071.56;1803982;77;21612;-54
2020/12/20 10:40:28;;;;;;;14.63;8.83;;;;;;;5.38;68.71;102073.55;1811283;77;21189;-53
2020/12/20 10:42:56;;;;;;;17.42;8.88;;;;;;;5.29;68.67;102069.91;1783611;79;21200;-64
2020/12/20 10:45:24;;;;;;;16.05;9.40;;;;;;;5.14;68.75;102065.16;1805306;77;21377;-58
2020/12/20 10:47:52;;;;;;;12.63;8.05;;;;;;;5.08;69.07;102070.55;1801547;78;21234;-57
2020/12/20 10:53:05;;;;;;;13.30;7.97;;;;;;;5.38;68.99;102067.03;1798909;78;22388;-56
2020/12/20 10:55:34;;;;;;;13.05;7.17;;;;;;;5.33;68.87;102075.45;1770642;80;21208;-57
2020/12/20 10:58:01;;;;;;;17.17;10.32;;;;;;;5.33;68.74;102075.88;1733882;81;23611;-56
2020/12/20 11:00:29;;;;;;;19.87;9.43;;;;;;;5.25;68.69;102074.83;1699258;83;21253;-56
2020/12/20 11:02:56;;;;;;;18.37;10.25;;;;;;;5.17;68.82;102073.75;1704908;83;21188;-56
2020/12/20 11:05:28;;;;;;;22.32;9.13;;;;;;;5.16;69.01;102085.11;1720569;82;21219;-57
2020/12/20 11:07:56;;;;;;;23.83;11.08;;;;;;;5.20;69.06;102075.42;1721544;81;21141;-57
2020/12/20 11:10:25;;;;;;;21.48;10.35;;;;;;;5.37;68.85;102080.13;1709528;83;21207;-57
2020/12/20 11:12:53;;;;;;;19.17;8.88;;;;;;;5.59;68.31;102081.60;1714409;81;21259;-57
2020/12/20 11:15:21;;;;;;;20.35;9.50;;;;;;;5.69;67.84;102080.41;1720612;82;21231;-55
2020/12/20 11:17:49;;;;;;;20.02;10.50;;;;;;;5.65;67.87;102074.89;1741177;80;21546;-56
2020/12/20 11:20:16;;;;;;;21.07;11.73;;;;;;;5.63;68.06;102074.09;1737695;80;21664;-56
2020/12/20 11:22:43;;;;;;;23.05;11.73;;;;;;;5.64;68.03;102077.09;1727094;82;21127;-56
2020/12/20 11:25:11;;;;;;;22.00;11.48;;;;;;;5.67;68.13;102080.91;1711580;83;21220;-56
2020/12/20 11:27:40;;;;;;;21.57;11.25;;;;;;;5.71;67.82;102082.50;1708573;82;21211;-56
2020/12/20 11:30:08;;;;;;;23.62;12.53;;;;;;;5.81;67.24;102082.22;1702493;82;21237;-55
2020/12/20 11:32:36;;;;;;;20.40;10.90;;;;;;;5.88;66.76;102085.87;1721872;82;21564;-56
2020/12/20 11:35:04;;;;;;;24.85;12.53;;;;;;;5.87;66.50;102083.34;1722296;81;21397;-55
2020/12/20 11:37:32;;;;;;;25.23;12.45;;;;;;;5.80;66.35;102078.77;1721066;81;21223;-54
2020/12/20 11:40:00;;;;;;;19.42;11.38;;;;;;;5.70;66.63;102078.20;1702683;83;21666;-55
2020/12/20 11:42:28;;;;;;;21.87;12.40;;;;;;;5.65;66.76;102081.42;1730738;81;21150;-55
2020/12/20 11:44:56;;;;;;;21.37;12.18;;;;;;;5.59;66.95;102090.28;1735342;81;21664;-55
2020/12/20 11:47:24;;;;;;;24.95;13.35;;;;;;;5.60;67.00;102098.99;1722470;81;21216;-56
2020/12/20 11:49:51;;;;;;;20.20;10.90;;;;;;;5.67;66.67;102096.58;1704007;83;21219;-56
2020/12/20 11:52:19;;;;;;;26.75;13.28;;;;;;;5.68;66.53;102096.99;1710860;81;21215;-56
2020/12/20 11:54:49;;;;;;;22.20;12.88;;;;;;;5.65;66.46;102101.00;1759623;80;21164;-55
2020/12/20 11:57:16;;;;;;;21.00;12.58;;;;;;;5.61;66.69;102104.59;1761775;80;21171;-56
2020/12/20 11:59:45;;;;;;;22.70;10.88;;;;;;;5.55;66.63;102099.59;1756585;80;21363;-56
2020/12/20 12:02:12;;;;;;;18.45;11.22;;;;;;;5.47;66.71;102097.67;1759431;79;21191;-56
2020/12/20 12:04:46;;;;;;;25.23;13.35;;;;;;;5.37;66.94;102099.24;1768417;80;21211;-57
2020/12/20 12:07:13;;;;;;;24.30;11.80;;;;;;;5.30;67.09;102099.49;1767731;80;21224;-56
2020/12/20 12:09:43;;;;;;;22.32;12.55;;;;;;;5.17;67.20;102105.52;1768363;80;21228;-56
2020/12/20 12:12:11;;;;;;;20.35;10.43;;;;;;;4.99;67.58;102093.44;1758998;80;21216;-56
2020/12/20 12:14:39;;;;;;;27.15;12.00;;;;;;;4.96;67.97;102105.69;1757709;79;21243;-56